sensor_id;sensor_type;location;lat;lon;timestamp;P1;durP1;ratioP1;P2;durP2;ratioP2
60724;SDS011;59881;36.722;-4.462;2023-11-19T00:00:30;1.40;;;0.88;;
60724;SDS011;59881;36.722;-4.462;2023-11-19T00:02:56;1.55;;;1.08;;
60724;SDS011;59881;36.722;-4.462;2023-11-19T00:05:21;2.30;;;1.35;;
60724;SDS011;59881;36.722;-4.462;2023-11-19T00:07:47;2.95;;;0.90;;
60724;SDS011;59881;36.722;-4.462;2023-11-19T00:10:14;1.50;;;0.75;;
60724;SDS011;59881;36.722;-4.462;2023-11-19T00:12:44;1.80;;;1.08;;
60724;SDS011;59881;36.722;-4.462;2023-11-19T00:15:12;5.85;;;1.13;;
60724;SDS011;59881;36.722;-4.462;2023-11-19T00:17:38;2.50;;;0.93;;
60724;SDS011;59881;36.722;-4.462;2023-11-19T00:20:10;1.75;;;1.05;;
60724;SDS011;59881;36.722;-4.462;2023-11-19T00:22:39;1.77;;;1.10;;
60724;SDS011;59881;36.722;-4.462;2023-11-19T00:25:07;1.92;;;1.33;;
60724;SDS011;59881;36.722;-4.462;2023-11-19T00:27:34;1.55;;;1.13;;
60724;SDS011;59881;36.722;-4.462;2023-11-19T00:30:00;1.73;;;1.05;;
60724;SDS011;59881;36.722;-4.462;2023-11-19T00:32:26;1.85;;;1.25;;
60724;SDS011;59881;36.722;-4.462;2023-11-19T00:34:51;1.38;;;0.90;;
60724;SDS011;59881;36.722;-4.462;2023-11-19T00:37:17;2.67;;;1.23;;
60724;SDS011;59881;36.722;-4.462;2023-11-19T00:39:43;2.72;;;1.45;;
60724;SDS011;59881;36.722;-4.462;2023-11-19T00:42:09;2.35;;;0.95;;
60724;SDS011;59881;36.722;-4.462;2023-11-19T00:44:35;0.65;;;0.57;;
60724;SDS011;59881;36.722;-4.462;2023-11-19T00:47:01;1.10;;;0.80;;
60724;SDS011;59881;36.722;-4.462;2023-11-19T00:49:27;1.05;;;0.88;;
60724;SDS011;59881;36.722;-4.462;2023-11-19T00:51:53;1.10;;;0.82;;
60724;SDS011;59881;36.722;-4.462;2023-11-19T00:54:19;1.33;;;1.02;;
60724;SDS011;59881;36.722;-4.462;2023-11-19T00:56:45;1.25;;;0.82;;
60724;SDS011;59881;36.722;-4.462;2023-11-19T00:59:11;1.30;;;0.77;;
60724;SDS011;59881;36.722;-4.462;2023-11-19T01:01:37;1.40;;;0.95;;
60724;SDS011;59881;36.722;-4.462;2023-11-19T01:04:02;2.10;;;1.02;;
60724;SDS011;59881;36.722;-4.462;2023-11-19T01:06:29;1.55;;;0.90;;
60724;SDS011;59881;36.722;-4.462;2023-11-19T01:08:56;1.58;;;0.60;;
60724;SDS011;59881;36.722;-4.462;2023-11-19T01:11:22;1.70;;;0.82;;
60724;SDS011;59881;36.722;-4.462;2023-11-19T01:13:48;1.83;;;1.05;;
60724;SDS011;59881;36.722;-4.462;2023-11-19T01:16:15;4.38;;;1.13;;
60724;SDS011;59881;36.722;-4.462;2023-11-19T01:18:41;1.05;;;0.63;;
60724;SDS011;59881;36.722;-4.462;2023-11-19T01:21:07;1.77;;;1.10;;
60724;SDS011;59881;36.722;-4.462;2023-11-19T01:23:33;1.02;;;0.65;;
60724;SDS011;59881;36.722;-4.462;2023-11-19T01:25:59;1.42;;;0.73;;
60724;SDS011;59881;36.722;-4.462;2023-11-19T01:28:25;1.25;;;0.80;;
60724;SDS011;59881;36.722;-4.462;2023-11-19T01:30:51;1.05;;;0.75;;
60724;SDS011;59881;36.722;-4.462;2023-11-19T01:33:17;0.45;;;0.40;;
60724;SDS011;59881;36.722;-4.462;2023-11-19T01:35:42;0.75;;;0.57;;
60724;SDS011;59881;36.722;-4.462;2023-11-19T01:38:08;1.02;;;0.90;;
60724;SDS011;59881;36.722;-4.462;2023-11-19T01:40:34;3.97;;;1.60;;
60724;SDS011;59881;36.722;-4.462;2023-11-19T01:43:01;2.03;;;1.33;;
60724;SDS011;59881;36.722;-4.462;2023-11-19T01:45:28;2.72;;;1.73;;
60724;SDS011;59881;36.722;-4.462;2023-11-19T01:47:58;0.50;;;0.45;;
60724;SDS011;59881;36.722;-4.462;2023-11-19T01:50:29;2.95;;;1.25;;
60724;SDS011;59881;36.722;-4.462;2023-11-19T01:52:55;2.70;;;1.65;;
60724;SDS011;59881;36.722;-4.462;2023-11-19T01:55:25;2.00;;;1.02;;
60724;SDS011;59881;36.722;-4.462;2023-11-19T01:57:53;1.23;;;1.00;;
60724;SDS011;59881;36.722;-4.462;2023-11-19T02:00:23;1.73;;;1.05;;
60724;SDS011;59881;36.722;-4.462;2023-11-19T02:02:49;3.75;;;1.15;;
60724;SDS011;59881;36.722;-4.462;2023-11-19T02:05:17;1.38;;;0.70;;
60724;SDS011;59881;36.722;-4.462;2023-11-19T02:07:42;4.38;;;1.55;;
60724;SDS011;59881;36.722;-4.462;2023-11-19T02:10:08;2.67;;;1.50;;
60724;SDS011;59881;36.722;-4.462;2023-11-19T02:12:42;2.30;;;1.48;;
60724;SDS011;59881;36.722;-4.462;2023-11-19T02:15:08;0.77;;;0.68;;
60724;SDS011;59881;36.722;-4.462;2023-11-19T02:17:35;1.25;;;0.90;;
60724;SDS011;59881;36.722;-4.462;2023-11-19T02:20:03;2.95;;;1.33;;
60724;SDS011;59881;36.722;-4.462;2023-11-19T02:22:34;2.95;;;1.10;;
60724;SDS011;59881;36.722;-4.462;2023-11-19T02:25:00;2.05;;;1.35;;
60724;SDS011;59881;36.722;-4.462;2023-11-19T02:30:15;1.58;;;0.93;;
60724;SDS011;59881;36.722;-4.462;2023-11-19T02:32:41;1.88;;;0.77;;
60724;SDS011;59881;36.722;-4.462;2023-11-19T02:35:07;2.22;;;1.15;;
60724;SDS011;59881;36.722;-4.462;2023-11-19T02:37:36;1.75;;;0.98;;
60724;SDS011;59881;36.722;-4.462;2023-11-19T02:40:04;3.03;;;1.00;;
60724;SDS011;59881;36.722;-4.462;2023-11-19T02:42:30;1.52;;;0.80;;
60724;SDS011;59881;36.722;-4.462;2023-11-19T02:44:56;1.80;;;1.27;;
60724;SDS011;59881;36.722;-4.462;2023-11-19T02:47:22;2.38;;;1.33;;
60724;SDS011;59881;36.722;-4.462;2023-11-19T02:49:49;0.55;;;0.55;;
60724;SDS011;59881;36.722;-4.462;2023-11-19T02:52:15;1.55;;;1.02;;
60724;SDS011;59881;36.722;-4.462;2023-11-19T02:54:40;0.93;;;0.50;;
60724;SDS011;59881;36.722;-4.462;2023-11-19T02:57:07;2.05;;;1.38;;
60724;SDS011;59881;36.722;-4.462;2023-11-19T02:59:35;3.45;;;1.63;;
60724;SDS011;59881;36.722;-4.462;2023-11-19T03:04:39;0.70;;;0.57;;
60724;SDS011;59881;36.722;-4.462;2023-11-19T03:07:05;1.65;;;0.80;;
60724;SDS011;59881;36.722;-4.462;2023-11-19T03:09:34;2.35;;;0.82;;
60724;SDS011;59881;36.722;-4.462;2023-11-19T03:12:00;2.15;;;1.00;;
60724;SDS011;59881;36.722;-4.462;2023-11-19T03:14:27;1.98;;;1.00;;
60724;SDS011;59881;36.722;-4.462;2023-11-19T03:16:53;1.15;;;0.80;;
60724;SDS011;59881;36.722;-4.462;2023-11-19T03:19:19;2.42;;;1.02;;
60724;SDS011;59881;36.722;-4.462;2023-11-19T03:21:44;1.40;;;0.95;;
60724;SDS011;59881;36.722;-4.462;2023-11-19T03:24:10;1.63;;;1.23;;
60724;SDS011;59881;36.722;-4.462;2023-11-19T03:26:38;2.65;;;1.05;;
60724;SDS011;59881;36.722;-4.462;2023-11-19T03:29:04;2.67;;;0.73;;
60724;SDS011;59881;36.722;-4.462;2023-11-19T03:31:29;0.45;;;0.30;;
60724;SDS011;59881;36.722;-4.462;2023-11-19T03:33:55;0.98;;;0.65;;
60724;SDS011;59881;36.722;-4.462;2023-11-19T03:36:21;0.93;;;0.73;;
60724;SDS011;59881;36.722;-4.462;2023-11-19T03:38:47;1.85;;;0.77;;
60724;SDS011;59881;36.722;-4.462;2023-11-19T03:41:13;1.67;;;0.77;;
60724;SDS011;59881;36.722;-4.462;2023-11-19T03:43:39;0.57;;;0.47;;
60724;SDS011;59881;36.722;-4.462;2023-11-19T03:46:18;1.25;;;0.70;;
60724;SDS011;59881;36.722;-4.462;2023-11-19T03:48:46;0.50;;;0.43;;
60724;SDS011;59881;36.722;-4.462;2023-11-19T03:51:13;1.35;;;0.80;;
60724;SDS011;59881;36.722;-4.462;2023-11-19T03:53:43;0.98;;;0.50;;
60724;SDS011;59881;36.722;-4.462;2023-11-19T03:56:12;1.23;;;0.63;;
60724;SDS011;59881;36.722;-4.462;2023-11-19T03:58:38;2.03;;;0.65;;
60724;SDS011;59881;36.722;-4.462;2023-11-19T04:01:04;3.60;;;1.25;;
60724;SDS011;59881;36.722;-4.462;2023-11-19T04:03:30;1.38;;;0.88;;
60724;SDS011;59881;36.722;-4.462;2023-11-19T04:05:56;0.93;;;0.70;;
60724;SDS011;59881;36.722;-4.462;2023-11-19T04:08:22;0.30;;;0.30;;
60724;SDS011;59881;36.722;-4.462;2023-11-19T04:10:48;0.68;;;0.45;;
60724;SDS011;59881;36.722;-4.462;2023-11-19T04:13:13;0.45;;;0.38;;
60724;SDS011;59881;36.722;-4.462;2023-11-19T04:15:39;0.95;;;0.57;;
60724;SDS011;59881;36.722;-4.462;2023-11-19T04:18:05;0.47;;;0.45;;
60724;SDS011;59881;36.722;-4.462;2023-11-19T04:20:30;1.25;;;0.90;;
60724;SDS011;59881;36.722;-4.462;2023-11-19T04:22:56;1.85;;;1.05;;
60724;SDS011;59881;36.722;-4.462;2023-11-19T04:25:22;2.08;;;1.33;;
60724;SDS011;59881;36.722;-4.462;2023-11-19T04:27:51;2.00;;;0.80;;
60724;SDS011;59881;36.722;-4.462;2023-11-19T04:30:17;0.52;;;0.47;;
60724;SDS011;59881;36.722;-4.462;2023-11-19T04:32:43;0.93;;;0.93;;
60724;SDS011;59881;36.722;-4.462;2023-11-19T04:35:09;0.20;;;0.20;;
60724;SDS011;59881;36.722;-4.462;2023-11-19T04:37:35;0.40;;;0.40;;
60724;SDS011;59881;36.722;-4.462;2023-11-19T04:40:02;0.80;;;0.50;;
60724;SDS011;59881;36.722;-4.462;2023-11-19T04:42:28;2.22;;;0.73;;
60724;SDS011;59881;36.722;-4.462;2023-11-19T04:44:54;1.20;;;0.63;;
60724;SDS011;59881;36.722;-4.462;2023-11-19T04:47:20;0.73;;;0.60;;
60724;SDS011;59881;36.722;-4.462;2023-11-19T04:49:46;1.85;;;0.85;;
60724;SDS011;59881;36.722;-4.462;2023-11-19T04:52:11;0.52;;;0.50;;
60724;SDS011;59881;36.722;-4.462;2023-11-19T04:54:41;0.68;;;0.50;;
60724;SDS011;59881;36.722;-4.462;2023-11-19T04:57:07;1.65;;;0.57;;
60724;SDS011;59881;36.722;-4.462;2023-11-19T04:59:36;2.58;;;1.35;;
60724;SDS011;59881;36.722;-4.462;2023-11-19T05:02:02;1.35;;;1.02;;
60724;SDS011;59881;36.722;-4.462;2023-11-19T05:04:29;0.55;;;0.55;;
60724;SDS011;59881;36.722;-4.462;2023-11-19T05:06:55;0.47;;;0.40;;
60724;SDS011;59881;36.722;-4.462;2023-11-19T05:09:20;1.13;;;0.80;;
60724;SDS011;59881;36.722;-4.462;2023-11-19T05:11:46;1.60;;;0.88;;
60724;SDS011;59881;36.722;-4.462;2023-11-19T05:14:11;0.15;;;0.15;;
60724;SDS011;59881;36.722;-4.462;2023-11-19T05:16:39;2.35;;;0.80;;
60724;SDS011;59881;36.722;-4.462;2023-11-19T05:19:05;0.40;;;0.38;;
60724;SDS011;59881;36.722;-4.462;2023-11-19T05:21:30;1.25;;;0.85;;
60724;SDS011;59881;36.722;-4.462;2023-11-19T05:23:56;1.52;;;0.73;;
60724;SDS011;59881;36.722;-4.462;2023-11-19T05:26:22;0.40;;;0.30;;
60724;SDS011;59881;36.722;-4.462;2023-11-19T05:28:49;2.03;;;0.95;;
60724;SDS011;59881;36.722;-4.462;2023-11-19T05:31:15;1.48;;;0.90;;
60724;SDS011;59881;36.722;-4.462;2023-11-19T05:33:42;1.23;;;0.57;;
60724;SDS011;59881;36.722;-4.462;2023-11-19T05:36:08;0.40;;;0.40;;
60724;SDS011;59881;36.722;-4.462;2023-11-19T05:38:35;0.68;;;0.38;;
60724;SDS011;59881;36.722;-4.462;2023-11-19T05:41:02;0.70;;;0.60;;
60724;SDS011;59881;36.722;-4.462;2023-11-19T05:43:27;1.00;;;0.50;;
60724;SDS011;59881;36.722;-4.462;2023-11-19T05:45:53;0.32;;;0.20;;
60724;SDS011;59881;36.722;-4.462;2023-11-19T05:48:19;1.63;;;0.60;;
60724;SDS011;59881;36.722;-4.462;2023-11-19T05:50:44;0.28;;;0.28;;
60724;SDS011;59881;36.722;-4.462;2023-11-19T05:53:10;0.50;;;0.45;;
60724;SDS011;59881;36.722;-4.462;2023-11-19T05:55:38;0.38;;;0.28;;
60724;SDS011;59881;36.722;-4.462;2023-11-19T05:58:25;0.28;;;0.22;;
60724;SDS011;59881;36.722;-4.462;2023-11-19T06:00:51;0.17;;;0.17;;
60724;SDS011;59881;36.722;-4.462;2023-11-19T06:03:17;0.30;;;0.30;;
60724;SDS011;59881;36.722;-4.462;2023-11-19T06:05:46;0.88;;;0.68;;
60724;SDS011;59881;36.722;-4.462;2023-11-19T06:08:12;0.25;;;0.25;;
60724;SDS011;59881;36.722;-4.462;2023-11-19T06:10:38;0.20;;;0.20;;
60724;SDS011;59881;36.722;-4.462;2023-11-19T06:13:05;0.40;;;0.40;;
60724;SDS011;59881;36.722;-4.462;2023-11-19T06:15:31;0.30;;;0.30;;
60724;SDS011;59881;36.722;-4.462;2023-11-19T06:17:58;0.75;;;0.30;;
60724;SDS011;59881;36.722;-4.462;2023-11-19T06:20:28;0.90;;;0.77;;
60724;SDS011;59881;36.722;-4.462;2023-11-19T06:22:57;0.22;;;0.20;;
60724;SDS011;59881;36.722;-4.462;2023-11-19T06:25:23;0.65;;;0.45;;
60724;SDS011;59881;36.722;-4.462;2023-11-19T06:27:49;1.08;;;0.47;;
60724;SDS011;59881;36.722;-4.462;2023-11-19T06:30:15;2.30;;;0.52;;
60724;SDS011;59881;36.722;-4.462;2023-11-19T06:32:41;0.60;;;0.50;;
60724;SDS011;59881;36.722;-4.462;2023-11-19T06:35:07;0.30;;;0.30;;
60724;SDS011;59881;36.722;-4.462;2023-11-19T06:37:33;0.10;;;0.10;;
60724;SDS011;59881;36.722;-4.462;2023-11-19T06:39:59;0.60;;;0.60;;
60724;SDS011;59881;36.722;-4.462;2023-11-19T06:42:24;0.22;;;0.22;;
60724;SDS011;59881;36.722;-4.462;2023-11-19T06:44:50;0.55;;;0.40;;
60724;SDS011;59881;36.722;-4.462;2023-11-19T06:47:16;0.20;;;0.20;;
60724;SDS011;59881;36.722;-4.462;2023-11-19T06:49:45;0.40;;;0.40;;
60724;SDS011;59881;36.722;-4.462;2023-11-19T06:52:11;0.40;;;0.40;;
60724;SDS011;59881;36.722;-4.462;2023-11-19T06:54:38;0.20;;;0.20;;
60724;SDS011;59881;36.722;-4.462;2023-11-19T06:57:04;1.83;;;0.43;;
60724;SDS011;59881;36.722;-4.462;2023-11-19T06:59:30;0.28;;;0.25;;
60724;SDS011;59881;36.722;-4.462;2023-11-19T07:01:56;0.63;;;0.50;;
60724;SDS011;59881;36.722;-4.462;2023-11-19T07:04:21;0.10;;;0.10;;
60724;SDS011;59881;36.722;-4.462;2023-11-19T07:06:47;0.47;;;0.30;;
60724;SDS011;59881;36.722;-4.462;2023-11-19T07:09:13;0.40;;;0.32;;
60724;SDS011;59881;36.722;-4.462;2023-11-19T07:11:39;0.38;;;0.25;;
60724;SDS011;59881;36.722;-4.462;2023-11-19T07:14:06;0.15;;;0.15;;
60724;SDS011;59881;36.722;-4.462;2023-11-19T07:16:35;1.00;;;0.52;;
60724;SDS011;59881;36.722;-4.462;2023-11-19T07:19:06;0.10;;;0.10;;
60724;SDS011;59881;36.722;-4.462;2023-11-19T07:21:32;0.47;;;0.47;;
60724;SDS011;59881;36.722;-4.462;2023-11-19T07:24:00;0.38;;;0.35;;
60724;SDS011;59881;36.722;-4.462;2023-11-19T07:26:27;0.28;;;0.28;;
60724;SDS011;59881;36.722;-4.462;2023-11-19T07:28:52;0.88;;;0.35;;
60724;SDS011;59881;36.722;-4.462;2023-11-19T07:31:18;0.47;;;0.38;;
60724;SDS011;59881;36.722;-4.462;2023-11-19T07:33:46;0.90;;;0.70;;
60724;SDS011;59881;36.722;-4.462;2023-11-19T07:36:13;0.20;;;0.20;;
60724;SDS011;59881;36.722;-4.462;2023-11-19T07:38:38;0.38;;;0.38;;
60724;SDS011;59881;36.722;-4.462;2023-11-19T07:41:07;0.30;;;0.30;;
60724;SDS011;59881;36.722;-4.462;2023-11-19T07:43:37;0.17;;;0.17;;
60724;SDS011;59881;36.722;-4.462;2023-11-19T07:46:04;0.55;;;0.28;;
60724;SDS011;59881;36.722;-4.462;2023-11-19T07:48:29;0.20;;;0.20;;
60724;SDS011;59881;36.722;-4.462;2023-11-19T07:50:55;0.32;;;0.30;;
60724;SDS011;59881;36.722;-4.462;2023-11-19T07:53:21;0.60;;;0.60;;
60724;SDS011;59881;36.722;-4.462;2023-11-19T07:55:46;0.20;;;0.20;;
60724;SDS011;59881;36.722;-4.462;2023-11-19T07:58:12;0.40;;;0.30;;
60724;SDS011;59881;36.722;-4.462;2023-11-19T08:00:38;0.20;;;0.20;;
60724;SDS011;59881;36.722;-4.462;2023-11-19T08:03:04;0.68;;;0.28;;
60724;SDS011;59881;36.722;-4.462;2023-11-19T08:05:32;0.40;;;0.30;;
60724;SDS011;59881;36.722;-4.462;2023-11-19T08:07:58;0.20;;;0.20;;
60724;SDS011;59881;36.722;-4.462;2023-11-19T08:10:24;0.47;;;0.32;;
60724;SDS011;59881;36.722;-4.462;2023-11-19T08:12:49;0.25;;;0.25;;
60724;SDS011;59881;36.722;-4.462;2023-11-19T08:15:15;1.75;;;0.28;;
60724;SDS011;59881;36.722;-4.462;2023-11-19T08:17:41;0.35;;;0.32;;
60724;SDS011;59881;36.722;-4.462;2023-11-19T08:20:08;0.20;;;0.20;;
60724;SDS011;59881;36.722;-4.462;2023-11-19T08:22:38;0.20;;;0.20;;
60724;SDS011;59881;36.722;-4.462;2023-11-19T08:25:05;0.22;;;0.20;;
60724;SDS011;59881;36.722;-4.462;2023-11-19T08:27:31;0.40;;;0.30;;
60724;SDS011;59881;36.722;-4.462;2023-11-19T08:29:56;0.30;;;0.30;;
60724;SDS011;59881;36.722;-4.462;2023-11-19T08:32:23;0.47;;;0.32;;
60724;SDS011;59881;36.722;-4.462;2023-11-19T08:34:49;0.35;;;0.32;;
60724;SDS011;59881;36.722;-4.462;2023-11-19T08:37:14;0.20;;;0.10;;
60724;SDS011;59881;36.722;-4.462;2023-11-19T08:39:40;0.10;;;0.10;;
60724;SDS011;59881;36.722;-4.462;2023-11-19T08:42:07;0.38;;;0.22;;
60724;SDS011;59881;36.722;-4.462;2023-11-19T08:44:32;0.30;;;0.30;;
60724;SDS011;59881;36.722;-4.462;2023-11-19T08:46:58;0.13;;;0.13;;
60724;SDS011;59881;36.722;-4.462;2023-11-19T08:49:23;0.57;;;0.35;;
60724;SDS011;59881;36.722;-4.462;2023-11-19T08:51:49;0.10;;;0.10;;
60724;SDS011;59881;36.722;-4.462;2023-11-19T08:54:14;0.10;;;0.10;;
60724;SDS011;59881;36.722;-4.462;2023-11-19T08:56:40;0.00;;;0.00;;
60724;SDS011;59881;36.722;-4.462;2023-11-19T08:59:05;0.38;;;0.30;;
60724;SDS011;59881;36.722;-4.462;2023-11-19T09:01:31;0.88;;;0.45;;
60724;SDS011;59881;36.722;-4.462;2023-11-19T09:03:56;0.20;;;0.20;;
60724;SDS011;59881;36.722;-4.462;2023-11-19T09:06:22;0.32;;;0.20;;
60724;SDS011;59881;36.722;-4.462;2023-11-19T09:08:48;0.22;;;0.22;;
60724;SDS011;59881;36.722;-4.462;2023-11-19T09:11:13;0.25;;;0.20;;
60724;SDS011;59881;36.722;-4.462;2023-11-19T09:13:39;0.20;;;0.10;;
60724;SDS011;59881;36.722;-4.462;2023-11-19T09:16:04;0.57;;;0.38;;
60724;SDS011;59881;36.722;-4.462;2023-11-19T09:18:30;0.30;;;0.30;;
60724;SDS011;59881;36.722;-4.462;2023-11-19T09:20:57;0.28;;;0.28;;
60724;SDS011;59881;36.722;-4.462;2023-11-19T09:23:23;0.45;;;0.45;;
60724;SDS011;59881;36.722;-4.462;2023-11-19T09:25:50;0.63;;;0.57;;
60724;SDS011;59881;36.722;-4.462;2023-11-19T09:28:16;0.30;;;0.30;;
60724;SDS011;59881;36.722;-4.462;2023-11-19T09:30:41;0.50;;;0.50;;
60724;SDS011;59881;36.722;-4.462;2023-11-19T09:33:07;0.20;;;0.20;;
60724;SDS011;59881;36.722;-4.462;2023-11-19T09:35:32;0.40;;;0.30;;
60724;SDS011;59881;36.722;-4.462;2023-11-19T09:37:58;1.05;;;0.28;;
60724;SDS011;59881;36.722;-4.462;2023-11-19T09:40:24;4.90;;;0.30;;
60724;SDS011;59881;36.722;-4.462;2023-11-19T09:42:49;0.50;;;0.40;;
60724;SDS011;59881;36.722;-4.462;2023-11-19T09:45:16;0.63;;;0.40;;
60724;SDS011;59881;36.722;-4.462;2023-11-19T09:47:45;0.35;;;0.20;;
60724;SDS011;59881;36.722;-4.462;2023-11-19T09:50:16;1.60;;;0.30;;
60724;SDS011;59881;36.722;-4.462;2023-11-19T09:52:45;0.40;;;0.38;;
60724;SDS011;59881;36.722;-4.462;2023-11-19T09:55:12;1.35;;;0.75;;
60724;SDS011;59881;36.722;-4.462;2023-11-19T09:57:40;0.25;;;0.25;;
60724;SDS011;59881;36.722;-4.462;2023-11-19T10:00:09;0.32;;;0.32;;
60724;SDS011;59881;36.722;-4.462;2023-11-19T10:02:36;0.57;;;0.45;;
60724;SDS011;59881;36.722;-4.462;2023-11-19T10:05:06;1.02;;;0.38;;
60724;SDS011;59881;36.722;-4.462;2023-11-19T10:07:33;1.35;;;0.52;;
60724;SDS011;59881;36.722;-4.462;2023-11-19T10:09:59;0.57;;;0.30;;
60724;SDS011;59881;36.722;-4.462;2023-11-19T10:12:26;0.20;;;0.20;;
60724;SDS011;59881;36.722;-4.462;2023-11-19T10:14:54;0.47;;;0.30;;
60724;SDS011;59881;36.722;-4.462;2023-11-19T10:17:27;0.20;;;0.20;;
60724;SDS011;59881;36.722;-4.462;2023-11-19T10:19:54;0.30;;;0.30;;
60724;SDS011;59881;36.722;-4.462;2023-11-19T10:22:22;0.45;;;0.30;;
60724;SDS011;59881;36.722;-4.462;2023-11-19T10:24:49;0.52;;;0.30;;
60724;SDS011;59881;36.722;-4.462;2023-11-19T10:27:15;0.50;;;0.40;;
60724;SDS011;59881;36.722;-4.462;2023-11-19T10:29:42;0.63;;;0.32;;
60724;SDS011;59881;36.722;-4.462;2023-11-19T10:32:10;0.90;;;0.28;;
60724;SDS011;59881;36.722;-4.462;2023-11-19T10:34:38;0.57;;;0.47;;
60724;SDS011;59881;36.722;-4.462;2023-11-19T10:37:04;2.00;;;0.55;;
60724;SDS011;59881;36.722;-4.462;2023-11-19T10:42:22;1.33;;;0.38;;
60724;SDS011;59881;36.722;-4.462;2023-11-19T10:44:47;0.20;;;0.20;;
60724;SDS011;59881;36.722;-4.462;2023-11-19T10:47:16;1.27;;;0.40;;
60724;SDS011;59881;36.722;-4.462;2023-11-19T10:49:44;0.38;;;0.32;;
60724;SDS011;59881;36.722;-4.462;2023-11-19T10:52:17;0.20;;;0.20;;
60724;SDS011;59881;36.722;-4.462;2023-11-19T10:54:49;0.05;;;0.05;;
60724;SDS011;59881;36.722;-4.462;2023-11-19T10:57:19;0.75;;;0.35;;
60724;SDS011;59881;36.722;-4.462;2023-11-19T10:59:47;0.25;;;0.25;;
60724;SDS011;59881;36.722;-4.462;2023-11-19T11:02:13;0.43;;;0.20;;
60724;SDS011;59881;36.722;-4.462;2023-11-19T11:04:47;0.32;;;0.30;;
60724;SDS011;59881;36.722;-4.462;2023-11-19T11:07:14;0.65;;;0.40;;
60724;SDS011;59881;36.722;-4.462;2023-11-19T11:09:42;0.55;;;0.10;;
60724;SDS011;59881;36.722;-4.462;2023-11-19T11:12:11;0.20;;;0.20;;
60724;SDS011;59881;36.722;-4.462;2023-11-19T11:14:38;0.38;;;0.20;;
60724;SDS011;59881;36.722;-4.462;2023-11-19T11:17:05;0.10;;;0.10;;
60724;SDS011;59881;36.722;-4.462;2023-11-19T11:19:33;0.20;;;0.20;;
60724;SDS011;59881;36.722;-4.462;2023-11-19T11:21:59;0.20;;;0.20;;
60724;SDS011;59881;36.722;-4.462;2023-11-19T11:24:35;0.10;;;0.10;;
60724;SDS011;59881;36.722;-4.462;2023-11-19T11:30:00;0.30;;;0.30;;
60724;SDS011;59881;36.722;-4.462;2023-11-19T11:38:04;0.57;;;0.52;;
60724;SDS011;59881;36.722;-4.462;2023-11-19T11:40:32;0.13;;;0.10;;
60724;SDS011;59881;36.722;-4.462;2023-11-19T11:42:58;0.10;;;0.10;;
60724;SDS011;59881;36.722;-4.462;2023-11-19T11:45:36;0.10;;;0.10;;
60724;SDS011;59881;36.722;-4.462;2023-11-19T11:48:10;0.40;;;0.20;;
60724;SDS011;59881;36.722;-4.462;2023-11-19T11:50:47;0.30;;;0.30;;
60724;SDS011;59881;36.722;-4.462;2023-11-19T11:53:18;0.10;;;0.10;;
60724;SDS011;59881;36.722;-4.462;2023-11-19T11:58:17;0.00;;;0.00;;
60724;SDS011;59881;36.722;-4.462;2023-11-19T12:00:44;0.10;;;0.10;;
60724;SDS011;59881;36.722;-4.462;2023-11-19T12:03:12;0.10;;;0.10;;
60724;SDS011;59881;36.722;-4.462;2023-11-19T12:05:41;0.10;;;0.10;;
60724;SDS011;59881;36.722;-4.462;2023-11-19T12:08:09;0.30;;;0.30;;
60724;SDS011;59881;36.722;-4.462;2023-11-19T12:10:46;0.00;;;0.00;;
60724;SDS011;59881;36.722;-4.462;2023-11-19T12:13:14;0.10;;;0.10;;
60724;SDS011;59881;36.722;-4.462;2023-11-19T12:18:28;0.10;;;0.10;;
60724;SDS011;59881;36.722;-4.462;2023-11-19T12:20:57;0.20;;;0.20;;
60724;SDS011;59881;36.722;-4.462;2023-11-19T12:23:30;0.22;;;0.20;;
60724;SDS011;59881;36.722;-4.462;2023-11-19T12:25:56;0.10;;;0.10;;
60724;SDS011;59881;36.722;-4.462;2023-11-19T12:28:22;0.15;;;0.15;;
60724;SDS011;59881;36.722;-4.462;2023-11-19T12:30:49;0.20;;;0.20;;
60724;SDS011;59881;36.722;-4.462;2023-11-19T12:33:16;0.10;;;0.10;;
60724;SDS011;59881;36.722;-4.462;2023-11-19T12:35:42;0.10;;;0.10;;
60724;SDS011;59881;36.722;-4.462;2023-11-19T12:38:22;1.20;;;0.55;;
60724;SDS011;59881;36.722;-4.462;2023-11-19T12:41:09;0.20;;;0.15;;
60724;SDS011;59881;36.722;-4.462;2023-11-19T12:43:38;0.20;;;0.20;;
60724;SDS011;59881;36.722;-4.462;2023-11-19T12:46:20;0.10;;;0.10;;
60724;SDS011;59881;36.722;-4.462;2023-11-19T12:48:50;0.65;;;0.20;;
60724;SDS011;59881;36.722;-4.462;2023-11-19T12:51:18;0.32;;;0.20;;
60724;SDS011;59881;36.722;-4.462;2023-11-19T12:53:48;0.10;;;0.10;;
60724;SDS011;59881;36.722;-4.462;2023-11-19T12:56:15;0.20;;;0.20;;
60724;SDS011;59881;36.722;-4.462;2023-11-19T12:58:41;0.60;;;0.25;;
60724;SDS011;59881;36.722;-4.462;2023-11-19T13:01:08;0.57;;;0.20;;
60724;SDS011;59881;36.722;-4.462;2023-11-19T13:03:37;0.10;;;0.10;;
60724;SDS011;59881;36.722;-4.462;2023-11-19T13:06:07;0.47;;;0.22;;
60724;SDS011;59881;36.722;-4.462;2023-11-19T13:08:39;0.03;;;0.03;;
60724;SDS011;59881;36.722;-4.462;2023-11-19T13:11:06;0.00;;;0.00;;
60724;SDS011;59881;36.722;-4.462;2023-11-19T13:13:54;0.10;;;0.10;;
60724;SDS011;59881;36.722;-4.462;2023-11-19T13:16:24;0.10;;;0.00;;
60724;SDS011;59881;36.722;-4.462;2023-11-19T13:18:50;0.30;;;0.28;;
60724;SDS011;59881;36.722;-4.462;2023-11-19T13:21:16;0.20;;;0.20;;
60724;SDS011;59881;36.722;-4.462;2023-11-19T13:23:43;0.10;;;0.05;;
60724;SDS011;59881;36.722;-4.462;2023-11-19T13:26:09;0.10;;;0.10;;
60724;SDS011;59881;36.722;-4.462;2023-11-19T13:28:35;0.00;;;0.00;;
60724;SDS011;59881;36.722;-4.462;2023-11-19T13:31:01;0.10;;;0.10;;
60724;SDS011;59881;36.722;-4.462;2023-11-19T13:33:27;0.17;;;0.17;;
60724;SDS011;59881;36.722;-4.462;2023-11-19T13:35:54;0.28;;;0.28;;
60724;SDS011;59881;36.722;-4.462;2023-11-19T13:38:20;1.00;;;0.55;;
60724;SDS011;59881;36.722;-4.462;2023-11-19T13:40:45;0.10;;;0.10;;
60724;SDS011;59881;36.722;-4.462;2023-11-19T13:43:11;0.25;;;0.25;;
60724;SDS011;59881;36.722;-4.462;2023-11-19T13:45:36;0.43;;;0.20;;
60724;SDS011;59881;36.722;-4.462;2023-11-19T13:48:02;0.10;;;0.10;;
60724;SDS011;59881;36.722;-4.462;2023-11-19T13:50:28;0.80;;;0.30;;
60724;SDS011;59881;36.722;-4.462;2023-11-19T13:52:54;0.13;;;0.10;;
60724;SDS011;59881;36.722;-4.462;2023-11-19T13:55:20;0.20;;;0.20;;
60724;SDS011;59881;36.722;-4.462;2023-11-19T13:57:47;0.10;;;0.10;;
60724;SDS011;59881;36.722;-4.462;2023-11-19T14:00:14;0.10;;;0.10;;
60724;SDS011;59881;36.722;-4.462;2023-11-19T14:02:45;0.65;;;0.40;;
60724;SDS011;59881;36.722;-4.462;2023-11-19T14:05:15;0.20;;;0.20;;
60724;SDS011;59881;36.722;-4.462;2023-11-19T14:07:44;0.20;;;0.08;;
60724;SDS011;59881;36.722;-4.462;2023-11-19T14:10:11;3.20;;;0.30;;
60724;SDS011;59881;36.722;-4.462;2023-11-19T14:12:39;0.43;;;0.30;;
60724;SDS011;59881;36.722;-4.462;2023-11-19T14:15:05;0.57;;;0.30;;
60724;SDS011;59881;36.722;-4.462;2023-11-19T14:17:33;0.43;;;0.40;;
60724;SDS011;59881;36.722;-4.462;2023-11-19T14:20:01;0.10;;;0.10;;
60724;SDS011;59881;36.722;-4.462;2023-11-19T14:22:30;1.75;;;0.20;;
60724;SDS011;59881;36.722;-4.462;2023-11-19T14:24:55;0.88;;;0.20;;
60724;SDS011;59881;36.722;-4.462;2023-11-19T14:27:21;0.10;;;0.10;;
60724;SDS011;59881;36.722;-4.462;2023-11-19T14:29:47;0.10;;;0.10;;
60724;SDS011;59881;36.722;-4.462;2023-11-19T14:32:13;0.20;;;0.20;;
60724;SDS011;59881;36.722;-4.462;2023-11-19T14:34:38;0.28;;;0.20;;
60724;SDS011;59881;36.722;-4.462;2023-11-19T14:37:04;0.28;;;0.20;;
60724;SDS011;59881;36.722;-4.462;2023-11-19T14:39:29;0.00;;;0.00;;
60724;SDS011;59881;36.722;-4.462;2023-11-19T14:41:56;0.10;;;0.10;;
60724;SDS011;59881;36.722;-4.462;2023-11-19T14:44:29;0.20;;;0.20;;
60724;SDS011;59881;36.722;-4.462;2023-11-19T14:46:55;0.30;;;0.30;;
60724;SDS011;59881;36.722;-4.462;2023-11-19T14:49:21;0.32;;;0.20;;
60724;SDS011;59881;36.722;-4.462;2023-11-19T14:51:46;0.10;;;0.10;;
60724;SDS011;59881;36.722;-4.462;2023-11-19T14:54:12;0.30;;;0.30;;